createdAt,value
2023-02-26T00:01:41.971Z,93408.06
2023-02-26T00:04:11.165Z,93380.03
2023-02-26T00:06:53.353Z,93375.25
2023-02-26T00:09:24.568Z,93390.78
2023-02-26T00:11:54.488Z,93391.94
2023-02-26T00:14:22.729Z,93393.91
2023-02-26T00:16:57.862Z,93370.19
2023-02-26T00:19:26.164Z,93364.03
2023-02-26T00:21:54.647Z,93357.47
2023-02-26T00:24:22.516Z,93360.75
2023-02-26T00:26:50.433Z,93361.44
2023-02-26T00:29:20.264Z,93352.00
2023-02-26T00:31:48.819Z,93363.13
2023-02-26T00:34:17.316Z,93360.41
2023-02-26T00:36:51.693Z,93362.91
2023-02-26T00:39:35.374Z,93355.81
2023-02-26T00:42:03.731Z,93348.56
2023-02-26T00:44:34.081Z,93364.66
2023-02-26T00:47:08.242Z,93372.84
2023-02-26T00:49:48.789Z,93342.09
2023-02-26T00:52:24.077Z,93341.41
2023-02-26T00:54:51.912Z,93327.09
2023-02-26T00:57:19.772Z,93337.19
2023-02-26T00:59:49.182Z,93356.84
2023-02-26T01:02:17.042Z,93340.72
2023-02-26T01:04:46.720Z,93341.22
2023-02-26T01:07:15.654Z,93305.97
2023-02-26T01:09:43.909Z,93349.28
2023-02-26T01:12:13.830Z,93351.19
2023-02-26T01:14:42.237Z,93288.00
2023-02-26T01:17:31.190Z,93322.34
2023-02-26T01:20:05.498Z,93302.59
2023-02-26T01:22:39.168Z,93289.16
2023-02-26T01:25:10.180Z,93260.53
2023-02-26T01:27:38.673Z,93260.97
2023-02-26T01:30:08.768Z,93273.84
2023-02-26T01:32:44.977Z,93262.22
2023-02-26T01:35:31.386Z,93273.59
2023-02-26T01:38:04.820Z,93260.28
2023-02-26T01:41:07.679Z,93258.16
2023-02-26T01:43:40.776Z,93288.13
2023-02-26T01:46:16.570Z,93276.84
2023-02-26T01:48:52.326Z,93274.13
2023-02-26T01:51:46.154Z,93275.03
2023-02-26T01:54:14.361Z,93257.09
2023-02-26T01:56:43.795Z,93285.94
2023-02-26T01:59:15.745Z,93259.03
2023-02-26T02:01:43.794Z,93246.75
2023-02-26T02:04:15.948Z,93257.31
2023-02-26T02:06:45.732Z,93267.41
2023-02-26T02:09:14.085Z,93259.81
2023-02-26T02:11:57.363Z,93247.22
2023-02-26T02:14:34.593Z,93236.56
2023-02-26T02:17:10.707Z,93233.13
2023-02-26T02:19:59.007Z,93254.00
2023-02-26T02:22:59.740Z,93241.72
2023-02-26T02:25:55.556Z,93246.88
2023-02-26T02:28:35.329Z,93242.91
2023-02-26T02:31:12.792Z,93265.34
2023-02-26T02:33:48.151Z,93241.53
2023-02-26T02:36:24.463Z,93242.19
2023-02-26T02:38:57.950Z,93223.81
2023-02-26T02:41:31.400Z,93271.81
2023-02-26T02:44:03.319Z,93256.97
2023-02-26T02:46:37.468Z,93262.97
2023-02-26T02:49:09.253Z,93261.06
2023-02-26T02:51:40.722Z,93260.56
2023-02-26T02:54:14.573Z,93278.84
2023-02-26T02:56:46.688Z,93271.09
2023-02-26T02:59:23.382Z,93288.13
2023-02-26T03:02:01.241Z,93277.03
2023-02-26T03:04:29.272Z,93276.25
2023-02-26T03:06:57.227Z,93290.59
2023-02-26T03:09:25.531Z,93278.75
2023-02-26T03:11:53.421Z,93289.78
2023-02-26T03:14:21.543Z,93290.66
2023-02-26T03:17:13.598Z,93262.19
2023-02-26T03:19:50.807Z,93288.31
2023-02-26T03:22:23.974Z,93283.34
2023-02-26T03:24:57.032Z,93240.03
2023-02-26T03:27:31.350Z,93257.25
2023-02-26T03:30:03.861Z,93262.97
2023-02-26T03:32:42.363Z,93264.56
2023-02-26T03:35:15.968Z,93265.44
2023-02-26T03:37:47.749Z,93273.97
2023-02-26T03:40:19.895Z,93248.31
2023-02-26T03:42:51.750Z,93266.91
2023-02-26T03:45:24.564Z,93264.31
2023-02-26T03:47:55.781Z,93250.50
2023-02-26T03:50:30.715Z,93236.97
2023-02-26T03:53:01.128Z,93246.34
2023-02-26T03:55:35.494Z,93246.94
2023-02-26T03:58:03.897Z,93243.22
2023-02-26T04:00:34.017Z,93232.66
2023-02-26T04:03:09.802Z,93261.84
2023-02-26T04:05:42.399Z,93264.47
2023-02-26T04:08:10.402Z,93259.28
2023-02-26T04:10:42.609Z,93260.94
2023-02-26T04:13:10.528Z,93241.88
2023-02-26T04:15:38.531Z,93242.91
2023-02-26T04:18:07.835Z,93250.94
2023-02-26T04:20:35.758Z,93231.31
2023-02-26T04:23:03.880Z,93226.66
2023-02-26T04:25:31.853Z,93238.34
2023-02-26T04:27:59.748Z,93234.59
2023-02-26T04:30:27.730Z,93230.31
2023-02-26T04:32:55.730Z,93217.81
2023-02-26T04:35:24.957Z,93214.06
2023-02-26T04:37:52.764Z,93217.91
2023-02-26T04:40:20.728Z,93220.31
2023-02-26T04:42:48.555Z,93202.47
2023-02-26T04:45:16.705Z,93214.53
2023-02-26T04:47:44.531Z,93201.34
2023-02-26T04:50:13.065Z,93201.91
2023-02-26T04:52:42.273Z,93192.94
2023-02-26T04:55:10.774Z,93200.31
2023-02-26T04:57:38.672Z,93193.97
2023-02-26T05:00:08.382Z,93206.34
2023-02-26T05:02:36.385Z,93194.31
2023-02-26T05:05:04.522Z,93188.88
2023-02-26T05:07:32.382Z,93151.03
2023-02-26T05:10:01.671Z,93184.78
2023-02-26T05:12:29.690Z,93191.34
2023-02-26T05:14:57.594Z,93156.59
2023-02-26T05:17:25.496Z,93157.59
2023-02-26T05:19:53.365Z,93185.47
2023-02-26T05:22:21.300Z,93181.47
2023-02-26T05:24:49.781Z,93174.88
2023-02-26T05:27:19.091Z,93165.78
2023-02-26T05:29:46.975Z,93170.09
2023-02-26T05:32:15.512Z,93176.59
2023-02-26T05:34:43.446Z,93184.41
2023-02-26T05:37:11.298Z,93185.78
2023-02-26T05:39:41.086Z,93179.97
2023-02-26T05:42:09.193Z,93197.00
2023-02-26T05:44:38.435Z,93191.66
2023-02-26T05:47:06.396Z,93169.63
2023-02-26T05:49:34.291Z,93183.16
2023-02-26T05:52:02.697Z,93196.34
2023-02-26T05:54:30.893Z,93175.97
2023-02-26T05:56:58.988Z,93187.22
2023-02-26T05:59:27.153Z,93190.16
2023-02-26T06:01:56.435Z,93196.19
2023-02-26T06:04:24.333Z,93175.00
2023-02-26T06:06:52.201Z,93187.16
2023-02-26T06:09:20.074Z,93215.59
2023-02-26T06:11:48.024Z,93246.06
2023-02-26T06:14:15.845Z,93205.13
2023-02-26T06:16:43.980Z,93206.19
2023-02-26T06:19:18.534Z,93189.66
2023-02-26T06:21:47.151Z,93192.25
2023-02-26T06:24:15.121Z,93226.03
2023-02-26T06:26:43.062Z,93203.94
2023-02-26T06:29:10.945Z,93190.38
2023-02-26T06:31:38.852Z,93206.06
2023-02-26T06:34:06.818Z,93189.94
2023-02-26T06:36:36.070Z,93199.59
2023-02-26T06:39:04.725Z,93165.56
2023-02-26T06:41:32.850Z,93198.50
2023-02-26T06:44:00.750Z,93185.50
2023-02-26T06:46:28.613Z,93192.00
2023-02-26T06:48:56.506Z,93169.88
2023-02-26T06:51:24.526Z,93195.53
2023-02-26T06:53:53.772Z,93169.44
2023-02-26T06:56:24.176Z,93218.69
2023-02-26T06:58:52.292Z,93177.69
2023-02-26T07:01:20.611Z,93171.47
2023-02-26T07:03:48.585Z,93173.72
2023-02-26T07:06:26.800Z,93216.72
2023-02-26T07:08:57.114Z,93164.38
2023-02-26T07:11:25.348Z,93156.03
2023-02-26T07:13:53.200Z,93169.69
2023-02-26T07:16:21.059Z,93147.63
2023-02-26T07:18:48.958Z,93168.09
2023-02-26T07:21:16.808Z,93162.47
2023-02-26T07:23:44.693Z,93195.94
2023-02-26T07:26:13.959Z,93193.97
2023-02-26T07:28:41.814Z,93175.72
2023-02-26T07:31:09.771Z,93142.28
2023-02-26T07:33:39.699Z,93177.78
2023-02-26T07:36:08.278Z,93157.13
2023-02-26T07:38:36.233Z,93190.41
2023-02-26T07:41:04.309Z,93177.63
2023-02-26T07:43:33.580Z,93172.56
2023-02-26T07:46:01.696Z,93146.03
2023-02-26T07:48:29.823Z,93161.91
2023-02-26T07:50:57.862Z,93158.66
2023-02-26T07:53:26.093Z,93170.16
2023-02-26T07:55:53.984Z,93148.78
2023-02-26T07:58:25.587Z,93130.06
2023-02-26T08:00:54.770Z,93157.50
2023-02-26T08:03:22.842Z,93161.31
2023-02-26T08:05:50.721Z,93151.84
2023-02-26T08:08:18.578Z,93177.78
2023-02-26T08:10:46.469Z,93162.66
2023-02-26T08:13:14.312Z,93156.91
2023-02-26T08:15:44.083Z,93178.91
2023-02-26T08:18:13.539Z,93148.72
2023-02-26T08:20:41.456Z,93116.03
2023-02-26T08:23:09.665Z,93166.88
2023-02-26T08:25:37.568Z,93177.19
2023-02-26T08:28:05.846Z,93188.69
2023-02-26T08:30:33.783Z,93183.91
2023-02-26T08:33:01.683Z,93179.50
2023-02-26T08:35:31.066Z,93207.00
2023-02-26T08:38:00.154Z,93197.06
2023-02-26T08:40:28.192Z,93244.84
2023-02-26T08:42:57.555Z,93180.38
2023-02-26T08:45:26.350Z,93231.50
2023-02-26T08:47:57.218Z,93204.84
2023-02-26T08:50:25.403Z,93229.50
2023-02-26T08:52:55.027Z,93196.41
2023-02-26T08:55:23.136Z,93191.66
2023-02-26T08:57:52.569Z,93185.38
2023-02-26T09:00:21.267Z,93209.34
2023-02-26T09:02:49.386Z,93204.53
2023-02-26T09:05:17.923Z,93195.81
2023-02-26T09:07:46.138Z,93207.06
2023-02-26T09:10:16.677Z,93202.25
2023-02-26T09:12:44.775Z,93222.31
2023-02-26T09:15:14.454Z,93234.44
2023-02-26T09:17:42.828Z,93230.69
2023-02-26T09:20:12.551Z,93223.59
2023-02-26T09:22:40.609Z,93228.75
2023-02-26T09:25:09.208Z,93220.88
2023-02-26T09:27:40.952Z,93208.38
2023-02-26T09:30:09.892Z,93187.41
2023-02-26T09:32:38.088Z,93205.81
2023-02-26T09:35:07.766Z,93208.47
2023-02-26T09:37:37.625Z,93216.13
2023-02-26T09:40:06.523Z,93232.78
2023-02-26T09:42:52.712Z,93223.28
2023-02-26T09:45:28.501Z,93214.63
2023-02-26T09:47:57.057Z,93192.22
2023-02-26T09:50:29.872Z,93188.28
2023-02-26T09:53:04.562Z,93210.16
2023-02-26T09:55:38.936Z,93197.78
2023-02-26T09:58:23.865Z,93216.47
2023-02-26T10:01:00.744Z,93219.13
2023-02-26T10:03:33.446Z,93231.53
2023-02-26T10:06:20.553Z,93225.44
2023-02-26T10:09:00.273Z,93201.06
2023-02-26T10:11:33.855Z,93191.63
2023-02-26T10:14:09.326Z,93186.28
2023-02-26T10:16:42.534Z,93209.31
2023-02-26T10:19:18.164Z,93176.41
2023-02-26T10:21:50.901Z,93178.53
2023-02-26T10:24:23.546Z,93185.84
2023-02-26T10:26:55.726Z,93195.88
2023-02-26T10:29:29.797Z,93203.03
2023-02-26T10:32:08.427Z,93167.34
2023-02-26T10:34:40.303Z,93167.41
2023-02-26T10:37:18.472Z,93187.16
2023-02-26T10:39:51.463Z,93188.88
2023-02-26T10:42:24.135Z,93151.44
2023-02-26T10:45:03.665Z,93147.38
2023-02-26T10:47:44.220Z,93148.63
2023-02-26T10:50:14.613Z,93152.16
2023-02-26T10:52:44.533Z,93132.94
2023-02-26T10:55:32.815Z,93154.28
2023-02-26T10:58:06.838Z,93146.38
2023-02-26T11:00:36.940Z,93131.56
2023-02-26T11:03:08.391Z,93170.13
2023-02-26T11:05:36.565Z,93170.03
2023-02-26T11:10:51.420Z,93159.13
2023-02-26T11:13:37.218Z,93129.47
2023-02-26T11:16:11.984Z,93129.97
2023-02-26T11:18:43.359Z,93122.59
2023-02-26T11:21:20.765Z,93126.59
2023-02-26T11:23:48.758Z,93147.75
2023-02-26T11:26:19.668Z,93083.03
2023-02-26T11:28:49.910Z,93146.44
2023-02-26T11:31:21.550Z,93149.91
2023-02-26T11:33:51.518Z,93154.53
2023-02-26T11:36:21.896Z,93141.06
2023-02-26T11:38:56.044Z,93155.53
2023-02-26T11:41:25.232Z,93179.34
2023-02-26T11:44:03.863Z,93175.63
2023-02-26T11:46:37.523Z,93158.72
2023-02-26T11:49:05.751Z,93185.22
2023-02-26T11:51:33.775Z,93181.13
2023-02-26T11:54:03.179Z,93204.69
2023-02-26T11:56:34.166Z,93213.16
2023-02-26T11:59:09.050Z,93212.31
2023-02-26T12:01:43.853Z,93229.03
2023-02-26T12:04:14.411Z,93228.16
2023-02-26T12:06:43.468Z,93227.91
2023-02-26T12:12:21.613Z,93227.97
2023-02-26T12:15:02.472Z,93233.53
2023-02-26T12:17:47.130Z,93201.78
2023-02-26T12:20:23.523Z,93206.31
2023-02-26T12:22:56.971Z,93219.84
2023-02-26T12:25:48.901Z,93250.34
2023-02-26T12:28:55.155Z,93238.31
2023-02-26T12:31:43.430Z,93245.97
2023-02-26T12:34:37.157Z,93254.47
2023-02-26T12:37:25.149Z,93259.31
2023-02-26T12:40:07.292Z,93264.66
2023-02-26T12:42:46.735Z,93252.25
2023-02-26T12:45:31.513Z,93281.03
2023-02-26T12:48:14.879Z,93286.59
2023-02-26T12:51:03.995Z,93256.69
2023-02-26T12:53:50.373Z,93293.84
2023-02-26T12:56:46.504Z,93252.44
2023-02-26T12:59:33.161Z,93253.81
2023-02-26T13:02:27.220Z,93277.31
2023-02-26T13:05:25.265Z,93256.38
2023-02-26T13:08:13.897Z,93271.38
2023-02-26T13:10:55.522Z,93263.88
2023-02-26T13:13:39.779Z,93271.97
2023-02-26T13:16:22.501Z,93280.91
2023-02-26T13:19:00.615Z,93273.91
2023-02-26T13:21:32.576Z,93311.09
2023-02-26T13:24:07.386Z,93294.19
2023-02-26T13:26:38.305Z,93277.03
2023-02-26T13:29:12.432Z,93267.91
2023-02-26T13:31:47.060Z,93286.28
2023-02-26T13:34:19.514Z,93252.63
2023-02-26T13:36:49.442Z,93272.59
2023-02-26T13:39:34.866Z,93258.56
2023-02-26T13:42:12.055Z,93245.41
2023-02-26T13:44:53.421Z,93250.72
2023-02-26T13:47:52.137Z,93250.25
2023-02-26T13:50:36.825Z,93238.94
2023-02-26T13:53:29.165Z,93257.28
2023-02-26T13:56:09.272Z,93254.63
2023-02-26T13:58:40.826Z,93262.69
2023-02-26T14:01:12.179Z,93251.34
2023-02-26T14:03:47.343Z,93237.38
2023-02-26T14:06:29.293Z,93238.56
2023-02-26T14:09:00.012Z,93252.94
2023-02-26T14:11:41.632Z,93227.22
2023-02-26T14:14:25.076Z,93263.84
2023-02-26T14:16:57.568Z,93234.59
2023-02-26T14:19:29.709Z,93252.78
2023-02-26T14:22:03.614Z,93239.13
2023-02-26T14:24:37.614Z,93247.63
2023-02-26T14:27:25.042Z,93244.34
2023-02-26T14:30:02.064Z,93271.63
2023-02-26T14:32:33.245Z,93280.63
2023-02-26T14:35:07.023Z,93279.91
2023-02-26T14:37:38.320Z,93269.56
2023-02-26T14:40:12.602Z,93269.44
2023-02-26T14:42:45.386Z,93283.91
2023-02-26T14:45:28.478Z,93258.03
2023-02-26T14:47:57.837Z,93267.19
2023-02-26T14:50:27.311Z,93264.66
2023-02-26T14:53:32.843Z,93269.28
2023-02-26T14:56:13.984Z,93295.75
2023-02-26T14:58:55.859Z,93296.31
2023-02-26T15:01:40.886Z,93289.88
2023-02-26T15:04:21.378Z,93287.75
2023-02-26T15:07:21.272Z,93311.91
2023-02-26T15:10:05.164Z,93289.56
2023-02-26T15:12:48.832Z,93279.22
2023-02-26T15:15:33.519Z,93290.75
2023-02-26T15:18:25.123Z,93278.47
2023-02-26T15:21:01.697Z,93284.63
2023-02-26T15:23:39.578Z,93294.41
2023-02-26T15:26:11.350Z,93319.41
2023-02-26T15:28:43.225Z,93316.94
2023-02-26T15:31:14.186Z,93306.22
2023-02-26T15:33:52.682Z,93293.84
2023-02-26T15:36:24.403Z,93344.00
2023-02-26T15:38:56.909Z,93335.88
2023-02-26T15:41:26.286Z,93338.06
2023-02-26T15:44:05.566Z,93322.31
2023-02-26T15:46:37.658Z,93344.34
2023-02-26T15:49:10.553Z,93333.03
2023-02-26T15:51:39.288Z,93341.38
2023-02-26T15:54:08.324Z,93341.06
2023-02-26T15:56:41.373Z,93345.53
2023-02-26T15:59:14.896Z,93353.56
2023-02-26T16:01:45.083Z,93346.88
2023-02-26T16:04:15.668Z,93365.16
2023-02-26T16:06:46.033Z,93357.75
2023-02-26T16:09:19.403Z,93368.06
2023-02-26T16:11:50.975Z,93361.97
2023-02-26T16:14:26.189Z,93360.53
2023-02-26T16:16:57.659Z,93366.25
2023-02-26T16:19:35.962Z,93377.38
2023-02-26T16:22:08.969Z,93362.31
2023-02-26T16:24:37.479Z,93372.75
2023-02-26T16:27:09.030Z,93384.72
2023-02-26T16:29:38.296Z,93370.28
2023-02-26T16:32:12.811Z,93378.53
2023-02-26T16:34:44.856Z,93377.38
2023-02-26T16:37:24.261Z,93353.81
2023-02-26T16:39:56.967Z,93371.94
2023-02-26T16:42:38.080Z,93376.75
2023-02-26T16:45:20.050Z,93395.44
2023-02-26T16:47:52.547Z,93405.25
2023-02-26T16:50:25.526Z,93409.59
2023-02-26T16:53:03.415Z,93396.16
2023-02-26T16:55:35.893Z,93402.44
2023-02-26T16:58:07.684Z,93385.81
2023-02-26T17:00:37.725Z,93394.84
2023-02-26T17:03:12.692Z,93398.97
2023-02-26T17:05:44.197Z,93418.31
2023-02-26T17:08:19.491Z,93417.28
2023-02-26T17:10:51.777Z,93438.91
2023-02-26T17:13:26.585Z,93445.28
2023-02-26T17:16:00.698Z,93443.47
2023-02-26T17:18:30.847Z,93429.72
2023-02-26T17:20:59.849Z,93423.00
2023-02-26T17:23:32.596Z,93404.47
2023-02-26T17:26:02.499Z,93437.34
2023-02-26T17:28:34.652Z,93423.78
2023-02-26T17:31:03.396Z,93412.97
2023-02-26T17:33:33.347Z,93413.91
2023-02-26T17:36:02.944Z,93429.81
2023-02-26T17:38:33.868Z,93430.84
2023-02-26T17:41:02.393Z,93429.47
2023-02-26T17:43:30.285Z,93434.50
2023-02-26T17:45:59.071Z,93432.22
2023-02-26T17:48:27.544Z,93442.13
2023-02-26T17:50:59.334Z,93448.25
2023-02-26T17:53:33.348Z,93437.81
2023-02-26T17:56:01.518Z,93445.97
2023-02-26T17:58:32.078Z,93441.56
2023-02-26T18:01:00.622Z,93413.84
2023-02-26T18:03:28.551Z,93424.19
2023-02-26T18:05:59.285Z,93438.03
2023-02-26T18:08:30.492Z,93458.69
2023-02-26T18:11:00.016Z,93451.44
2023-02-26T18:13:29.749Z,93461.44
2023-02-26T18:15:58.933Z,93459.22
2023-02-26T18:18:27.719Z,93435.06
2023-02-26T18:20:57.904Z,93436.81
2023-02-26T18:23:26.070Z,93443.34
2023-02-26T18:25:56.527Z,93474.09
2023-02-26T18:28:28.977Z,93435.56
2023-02-26T18:30:58.010Z,93440.03
2023-02-26T18:33:27.103Z,93462.75
2023-02-26T18:35:58.539Z,93453.22
2023-02-26T18:38:28.128Z,93444.84
2023-02-26T18:40:56.856Z,93458.81
2023-02-26T18:43:25.131Z,93465.22
2023-02-26T18:45:53.364Z,93461.38
2023-02-26T18:48:22.723Z,93479.00
2023-02-26T18:50:50.776Z,93471.81
2023-02-26T18:53:23.585Z,93464.97
2023-02-26T18:55:53.614Z,93484.34
2023-02-26T18:58:21.676Z,93492.03
2023-02-26T19:00:49.943Z,93504.69
2023-02-26T19:03:18.017Z,93488.09
2023-02-26T19:05:46.505Z,93509.00
2023-02-26T19:08:15.407Z,93496.78
2023-02-26T19:10:44.812Z,93508.06
2023-02-26T19:13:12.899Z,93510.06
2023-02-26T19:15:41.028Z,93497.28
2023-02-26T19:18:09.095Z,93504.19
2023-02-26T19:20:37.088Z,93527.91
2023-02-26T19:23:05.890Z,93505.22
2023-02-26T19:25:34.002Z,93522.25
2023-02-26T19:28:05.906Z,93532.09
2023-02-26T19:30:34.752Z,93507.72
2023-02-26T19:33:03.262Z,93557.41
2023-02-26T19:35:31.779Z,93546.78
2023-02-26T19:38:00.020Z,93552.38
2023-02-26T19:40:35.725Z,93551.72
2023-02-26T19:43:05.512Z,93548.97
2023-02-26T19:45:33.829Z,93549.28
2023-02-26T19:48:02.196Z,93543.13
2023-02-26T19:50:30.240Z,93539.69
2023-02-26T19:52:58.492Z,93530.09
2023-02-26T19:55:26.781Z,93564.81
2023-02-26T19:57:54.874Z,93560.06
2023-02-26T20:00:24.593Z,93564.72
2023-02-26T20:02:53.037Z,93563.94
2023-02-26T20:05:21.372Z,93566.94
2023-02-26T20:07:49.319Z,93571.09
2023-02-26T20:10:23.583Z,93576.91
2023-02-26T20:12:53.100Z,93590.19
2023-02-26T20:15:21.317Z,93579.34
2023-02-26T20:17:51.109Z,93581.28
2023-02-26T20:20:20.517Z,93577.47
2023-02-26T20:22:48.614Z,93599.53
2023-02-26T20:25:16.588Z,93595.88
2023-02-26T20:27:45.219Z,93588.44
2023-02-26T20:30:14.590Z,93607.66
2023-02-26T20:32:42.963Z,93623.50
2023-02-26T20:35:12.918Z,93617.06
2023-02-26T20:37:41.215Z,93605.66
2023-02-26T20:40:10.534Z,93612.47
2023-02-26T20:42:39.589Z,93621.28
2023-02-26T20:45:09.038Z,93624.25
2023-02-26T20:47:37.420Z,93583.16
2023-02-26T20:50:06.327Z,93595.22
2023-02-26T20:52:35.764Z,93635.16
2023-02-26T20:55:03.717Z,93635.75
2023-02-26T20:57:32.646Z,93635.94
2023-02-26T21:00:04.027Z,93635.28
2023-02-26T21:02:32.242Z,93646.50
2023-02-26T21:05:00.271Z,93647.78
2023-02-26T21:07:28.437Z,93625.66
2023-02-26T21:09:58.861Z,93632.06
2023-02-26T21:12:28.447Z,93631.63
2023-02-26T21:14:56.685Z,93641.63
2023-02-26T21:17:25.860Z,93643.84
2023-02-26T21:19:54.778Z,93642.00
2023-02-26T21:22:23.431Z,93633.97
2023-02-26T21:24:51.815Z,93642.00
2023-02-26T21:27:21.815Z,93633.84
2023-02-26T21:29:51.465Z,93628.34
2023-02-26T21:32:19.659Z,93638.00
2023-02-26T21:34:47.643Z,93631.81
2023-02-26T21:37:17.106Z,93631.84
2023-02-26T21:39:45.046Z,93631.63
2023-02-26T21:42:14.360Z,93635.63
2023-02-26T21:44:49.458Z,93642.28
2023-02-26T21:47:28.441Z,93648.66
2023-02-26T21:49:56.373Z,93654.25
2023-02-26T21:52:28.692Z,93668.91
2023-02-26T21:54:58.547Z,93661.91
2023-02-26T21:57:26.644Z,93659.69
2023-02-26T21:59:56.015Z,93650.13
2023-02-26T22:02:24.329Z,93650.63
2023-02-26T22:04:52.288Z,93657.03
2023-02-26T22:07:20.522Z,93642.53
2023-02-26T22:09:49.114Z,93648.97
2023-02-26T22:12:17.384Z,93641.09
2023-02-26T22:14:45.755Z,93653.91
2023-02-26T22:17:18.529Z,93651.66
2023-02-26T22:19:48.698Z,93651.09
2023-02-26T22:22:17.677Z,93658.56
2023-02-26T22:24:46.508Z,93663.50
2023-02-26T22:27:14.636Z,93639.41
2023-02-26T22:29:42.667Z,93645.44
2023-02-26T22:32:10.686Z,93662.94
2023-02-26T22:34:40.066Z,93645.31
2023-02-26T22:37:07.965Z,93656.91
2023-02-26T22:39:45.144Z,93662.94
2023-02-26T22:42:13.058Z,93661.16
2023-02-26T22:44:40.922Z,93685.19
2023-02-26T22:47:10.343Z,93679.19
2023-02-26T22:49:39.620Z,93648.97
2023-02-26T22:52:07.993Z,93635.13
2023-02-26T22:54:37.128Z,93636.34
2023-02-26T22:57:05.138Z,93674.03
2023-02-26T22:59:33.099Z,93689.22
2023-02-26T23:02:01.085Z,93676.81
2023-02-26T23:04:29.331Z,93658.81
2023-02-26T23:06:58.645Z,93650.78
2023-02-26T23:09:26.545Z,93657.56
2023-02-26T23:11:54.417Z,93670.63
2023-02-26T23:14:22.748Z,93655.97
2023-02-26T23:16:50.692Z,93655.34
2023-02-26T23:19:18.666Z,93658.16
2023-02-26T23:21:46.474Z,93657.56
2023-02-26T23:24:15.972Z,93661.97
2023-02-26T23:26:43.926Z,93676.38
2023-02-26T23:29:12.187Z,93664.63
2023-02-26T23:31:41.735Z,93666.19
2023-02-26T23:34:10.982Z,93671.22
2023-02-26T23:36:38.866Z,93663.19
2023-02-26T23:39:06.705Z,93659.38
2023-02-26T23:41:36.376Z,93664.59
2023-02-26T23:44:04.258Z,93659.59
2023-02-26T23:46:32.305Z,93660.00
2023-02-26T23:49:00.204Z,93675.00
2023-02-26T23:51:28.225Z,93673.19
2023-02-26T23:53:56.310Z,93667.81
2023-02-26T23:56:24.183Z,93665.22
2023-02-26T23:58:54.290Z,93667.03
